Time;durP1;ratioP1;P1;durP2;ratioP2;P2;SDS_P1;SDS_P2;PMS_P1;PMS_P2;Temp;Humidity;BMP_temperature;BMP_pressure;BME280_temperature;BME280_humidity;BME280_pressure;Samples;Min_cycle;Max_cycle;Signal;HPM_P1;HPM_P2
2023/01/22 00:01:34;;;;;;;24.10;7.20;;;;;;;-148.88;100.00;78571.13;5094862;28;20032;-83
2023/01/22 00:07:20;;;;;;;18.35;7.05;;;;;;;-148.88;100.00;78569.09;5097890;28;20035;-84
2023/01/22 00:09:45;;;;;;;18.02;7.43;;;;;;;-148.88;100.00;78563.00;5096176;28;20482;-82
2023/01/22 00:12:11;;;;;;;16.35;6.82;;;;;;;-148.88;100.00;78565.03;5094895;28;20028;-83
2023/01/22 00:14:36;;;;;;;21.13;6.93;;;;;;;-148.88;100.00;78558.94;5094756;28;20093;-83
2023/01/22 00:17:01;;;;;;;18.88;7.18;;;;;;;-148.88;100.00;78560.97;5093276;28;20028;-82
2023/01/22 00:19:26;;;;;;;16.52;7.88;;;;;;;-148.88;100.00;78560.97;5092744;28;20097;-83
2023/01/22 00:21:52;;;;;;;17.48;7.63;;;;;;;-148.88;100.00;78563.00;5093274;28;20024;-83
2023/01/22 00:24:17;;;;;;;18.13;8.23;;;;;;;-148.88;100.00;78563.00;5094930;28;20026;-82
2023/01/22 00:26:43;;;;;;;19.67;7.45;;;;;;;-148.88;100.00;78565.03;5100741;28;20024;-84
2023/01/22 00:29:08;;;;;;;17.13;7.25;;;;;;;-148.88;100.00;78565.03;5094517;28;20026;-83
2023/01/22 00:31:33;;;;;;;19.42;7.38;;;;;;;-148.88;100.00;78563.00;5095778;28;20470;-83
2023/01/22 00:33:59;;;;;;;20.48;8.05;;;;;;;-148.88;100.00;78560.97;5096348;28;20020;-84
2023/01/22 00:36:24;;;;;;;17.02;7.85;;;;;;;-148.88;100.00;78563.00;5096919;28;20535;-84
2023/01/22 00:38:50;;;;;;;19.80;7.47;;;;;;;-148.88;100.00;78567.06;5094760;28;20024;-84
2023/01/22 00:41:16;;;;;;;17.35;7.57;;;;;;;-148.88;100.00;78565.03;5096118;28;20055;-83
2023/01/22 00:43:42;;;;;;;17.63;7.35;;;;;;;-148.88;100.00;78567.06;5094772;28;20020;-81
2023/01/22 00:46:10;;;;;;;21.23;8.35;;;;;;;-148.88;100.00;78573.16;5096144;28;20031;-84
2023/01/22 00:48:35;;;;;;;20.30;7.82;;;;;;;-148.88;100.00;78567.06;5094122;28;20475;-84
2023/01/22 00:51:01;;;;;;;23.73;8.90;;;;;;;-148.88;100.00;78577.22;5093596;28;20039;-82
2023/01/22 00:53:26;;;;;;;21.90;8.48;;;;;;;-148.88;100.00;78573.16;5094016;28;20046;-82
2023/01/22 00:55:56;;;;;;;19.67;8.43;;;;;;;-148.88;100.00;78575.19;5093113;28;20058;-82
2023/01/22 00:58:21;;;;;;;19.52;8.45;;;;;;;-148.88;100.00;78569.09;5097193;28;20103;-83
2023/01/22 01:00:46;;;;;;;19.27;8.05;;;;;;;-148.88;100.00;78575.19;5095907;28;20461;-83
2023/01/22 01:03:30;;;;;;;24.77;9.10;;;;;;;-148.88;100.00;78575.19;5094807;28;20020;-82
2023/01/22 01:06:00;;;;;;;;;;;;;;;-148.88;100.00;78575.19;5098470;28;20099;-83
2023/01/22 01:08:28;;;;;;;21.95;7.88;;;;;;;-148.88;100.00;78573.16;5099599;28;19935;-83
2023/01/22 01:11:03;;;;;;;22.00;8.32;;;;;;;-148.88;100.00;78577.22;5097993;28;20020;-83
2023/01/22 01:13:31;;;;;;;24.15;9.23;;;;;;;-148.88;100.00;78573.16;5099214;28;20401;-83
2023/01/22 01:16:01;;;;;;;22.35;8.60;;;;;;;-148.88;100.00;78573.16;5098198;28;20034;-84
2023/01/22 01:18:26;;;;;;;19.58;8.20;;;;;;;-148.88;100.00;78569.09;5098483;28;20056;-83
2023/01/22 01:20:53;;;;;;;25.08;9.50;;;;;;;-148.88;100.00;78577.22;5099100;28;20020;-83
2023/01/22 01:23:19;;;;;;;25.27;9.98;;;;;;;-148.88;100.00;78571.13;5101247;28;20450;-82
2023/01/22 01:25:44;;;;;;;22.55;8.50;;;;;;;-148.88;100.00;78579.25;5097368;28;20036;-83
2023/01/22 01:28:09;;;;;;;22.33;8.23;;;;;;;-148.88;100.00;78575.19;5097479;28;20024;-82
2023/01/22 01:30:34;;;;;;;23.45;9.10;;;;;;;-148.88;100.00;78569.09;5099816;28;20028;-83
2023/01/22 01:33:00;;;;;;;20.77;8.45;;;;;;;-148.88;100.00;78573.16;5099406;28;20081;-83
2023/01/22 01:35:25;;;;;;;23.98;9.10;;;;;;;-148.88;100.00;78571.13;5099289;28;20035;-84
2023/01/22 01:37:52;;;;;;;24.73;9.77;;;;;;;-148.88;100.00;78571.13;5100086;28;20019;-84
2023/01/22 01:40:17;;;;;;;23.42;9.35;;;;;;;-148.88;100.00;78577.22;5097929;28;20016;-84
2023/01/22 01:42:43;;;;;;;22.40;7.82;;;;;;;-148.88;100.00;78567.06;5097409;28;20035;-84
2023/01/22 01:45:32;;;;;;;27.08;9.77;;;;;;;-148.88;100.00;78571.13;5098921;28;20079;-83
2023/01/22 01:48:22;;;;;;;24.55;10.25;;;;;;;-148.88;100.00;78569.09;5097536;28;20490;-83
2023/01/22 01:51:01;;;;;;;24.98;9.20;;;;;;;-148.88;100.00;78569.09;5099657;28;20504;-84
2023/01/22 01:53:27;;;;;;;24.83;9.90;;;;;;;-148.88;100.00;78571.13;5099424;28;20020;-83
2023/01/22 01:55:56;;;;;;;24.67;9.18;;;;;;;-148.88;100.00;78567.06;5098802;28;20102;-84
2023/01/22 01:59:32;;;;;;;26.27;10.23;;;;;;;-148.88;100.00;78560.97;5098501;28;20024;-83
2023/01/22 02:01:57;;;;;;;22.88;8.80;;;;;;;-148.88;100.00;78569.09;5095177;28;20450;-82
2023/01/22 02:04:23;;;;;;;25.40;8.88;;;;;;;-148.88;100.00;78565.03;5095157;28;20040;-82
2023/01/22 02:06:48;;;;;;;26.48;9.27;;;;;;;-148.88;100.00;78567.06;5096779;28;20031;-81
2023/01/22 02:09:14;;;;;;;22.02;9.70;;;;;;;-148.88;100.00;78571.13;5095869;28;20023;-82
2023/01/22 02:11:40;;;;;;;25.30;9.32;;;;;;;-148.88;100.00;78560.97;5097349;28;20032;-82
2023/01/22 02:14:20;;;;;;;22.13;8.55;;;;;;;-148.88;100.00;78565.03;5096071;28;20027;-82
2023/01/22 02:16:45;;;;;;;22.08;8.68;;;;;;;-148.88;100.00;78560.97;5100127;28;20077;-83
2023/01/22 02:19:11;;;;;;;24.00;9.27;;;;;;;-148.88;100.00;78560.97;5098494;28;20095;-83
2023/01/22 02:21:39;;;;;;;22.23;9.40;;;;;;;-148.88;100.00;78560.97;5096585;28;20026;-84
2023/01/22 02:24:11;;;;;;;26.02;9.48;;;;;;;-148.88;100.00;78556.88;5096467;28;20444;-83
2023/01/22 02:26:37;;;;;;;22.95;9.60;;;;;;;-148.88;100.00;78552.81;5097677;28;20509;-82
2023/01/22 02:29:04;;;;;;;20.75;9.07;;;;;;;-148.88;100.00;78552.81;5095978;28;20526;-82
2023/01/22 02:31:30;;;;;;;21.80;9.27;;;;;;;-148.88;100.00;78548.75;5096297;28;20024;-84
2023/01/22 02:33:55;;;;;;;21.52;9.27;;;;;;;-148.88;100.00;78554.84;5096276;28;20042;-83
2023/01/22 02:36:20;;;;;;;23.05;9.63;;;;;;;-148.88;100.00;78556.88;5094373;28;20023;-83
2023/01/22 02:38:46;;;;;;;25.15;9.10;;;;;;;-148.88;100.00;78548.75;5095859;28;20020;-83
2023/01/22 02:41:12;;;;;;;21.42;9.05;;;;;;;-148.88;100.00;78556.88;5099984;28;20024;-83
2023/01/22 02:43:37;;;;;;;24.02;9.13;;;;;;;-148.88;100.00;78560.97;5097459;28;20063;-83
2023/01/22 02:46:03;;;;;;;25.00;9.15;;;;;;;-148.88;100.00;78556.88;5095578;28;20032;-81
2023/01/22 02:48:28;;;;;;;19.65;8.05;;;;;;;-148.88;100.00;78556.88;5097266;28;20088;-81
2023/01/22 02:50:53;;;;;;;22.70;8.68;;;;;;;-148.88;100.00;78560.97;5095675;28;20119;-82
2023/01/22 02:53:18;;;;;;;30.08;9.20;;;;;;;-148.88;100.00;78569.09;5096331;28;20028;-83
2023/01/22 02:55:45;;;;;;;20.13;9.07;;;;;;;-148.88;100.00;78569.09;5097320;28;20051;-82
2023/01/22 02:58:11;;;;;;;26.00;10.15;;;;;;;-148.88;100.00;78569.09;5095774;28;20031;-84
2023/01/22 03:00:36;;;;;;;24.30;8.88;;;;;;;-148.88;100.00;78569.09;5095765;28;20024;-83
2023/01/22 03:03:06;;;;;;;21.52;9.05;;;;;;;-148.88;100.00;78558.94;5096779;28;20024;-83
2023/01/22 03:05:34;;;;;;;21.13;8.90;;;;;;;-148.88;100.00;78556.88;5097197;28;20092;-84
2023/01/22 03:08:00;;;;;;;24.88;10.00;;;;;;;-148.88;100.00;78569.09;5098608;28;20072;-83
2023/01/22 03:10:25;;;;;;;21.05;8.93;;;;;;;-148.88;100.00;78556.88;5098784;28;20028;-82
2023/01/22 03:21:14;;;;;;;;;;;;;;;-148.88;100.00;78548.75;5103091;28;20062;-82
2023/01/22 03:23:40;;;;;;;21.27;7.82;;;;;;;-148.88;100.00;78544.69;5111993;28;19907;-82
2023/01/22 03:26:05;;;;;;;23.92;9.10;;;;;;;-148.88;100.00;78540.63;5097602;28;20514;-82
2023/01/22 03:28:31;;;;;;;17.90;8.43;;;;;;;-148.88;100.00;78554.84;5094669;28;20016;-82
2023/01/22 03:30:57;;;;;;;17.13;7.80;;;;;;;-148.88;100.00;78554.84;5093929;28;20449;-82
2023/01/22 03:33:22;;;;;;;23.83;9.85;;;;;;;-148.88;100.00;78540.63;5093196;28;20020;-82
2023/01/22 03:35:48;;;;;;;18.25;8.00;;;;;;;-148.88;100.00;78552.81;5093680;28;20024;-82
2023/01/22 03:38:13;;;;;;;23.48;9.43;;;;;;;-148.88;100.00;78548.75;5092858;28;20466;-83
2023/01/22 03:40:38;;;;;;;22.92;8.75;;;;;;;-148.88;100.00;78552.81;5094250;28;20077;-83
2023/01/22 03:43:04;;;;;;;19.27;7.88;;;;;;;-148.88;100.00;78544.69;5092688;28;20026;-83
2023/01/22 03:45:31;;;;;;;18.85;8.80;;;;;;;-148.88;100.00;78548.75;5092978;28;20039;-81
2023/01/22 03:47:57;;;;;;;21.00;8.40;;;;;;;-148.88;100.00;78544.69;5092546;28;20024;-83
2023/01/22 03:50:22;;;;;;;20.85;8.43;;;;;;;-148.88;100.00;78544.69;5091555;22;20056;-82
2023/01/22 03:52:47;;;;;;;18.30;7.78;;;;;;;-148.88;100.00;78540.63;5073747;28;20467;-82
2023/01/22 03:55:13;;;;;;;20.23;8.65;;;;;;;-148.88;100.00;78538.59;5055275;28;20056;-82
2023/01/22 03:57:38;;;;;;;20.80;8.93;;;;;;;-148.88;100.00;78528.44;5055618;28;20386;-82
2023/01/22 04:00:06;;;;;;;17.48;8.52;;;;;;;-148.88;100.00;78536.56;5074330;28;20107;-82
2023/01/22 04:02:32;;;;;;;19.40;8.55;;;;;;;-148.88;100.00;78540.63;5055920;28;20501;-82
2023/01/22 04:04:57;;;;;;;15.65;7.70;;;;;;;-148.88;100.00;78536.56;5055315;28;20119;-82
2023/01/22 04:07:22;;;;;;;18.80;7.65;;;;;;;-148.88;100.00;78532.50;5072262;28;20058;-82
2023/01/22 04:09:47;;;;;;;20.45;8.05;;;;;;;-148.88;100.00;78520.31;5072422;28;20028;-82
2023/01/22 04:12:13;;;;;;;17.92;7.90;;;;;;;-148.88;100.00;78528.44;5072145;28;20029;-82
2023/01/22 04:14:38;;;;;;;18.45;8.13;;;;;;;-148.88;100.00;78520.31;5054180;28;20395;-82
2023/01/22 04:17:04;;;;;;;14.43;7.15;;;;;;;-148.88;100.00;78524.38;5054473;28;20024;-82
2023/01/22 04:19:30;;;;;;;17.33;8.10;;;;;;;-148.88;100.00;78528.44;5072626;28;20055;-82
2023/01/22 04:21:55;;;;;;;15.05;7.40;;;;;;;-148.88;100.00;78516.25;5054882;28;20020;-82
2023/01/22 04:24:20;;;;;;;16.17;7.55;;;;;;;-148.88;100.00;78516.25;5055124;28;20040;-82
2023/01/22 04:26:45;;;;;;;15.98;7.30;;;;;;;-148.88;100.00;78512.19;5072899;28;20134;-82
2023/01/22 04:29:11;;;;;;;15.20;7.40;;;;;;;-148.88;100.00;78512.19;5073639;28;20021;-82
2023/01/22 04:34:58;;;;;;;18.33;7.43;;;;;;;-148.88;100.00;78512.19;5072955;28;20055;-82
2023/01/22 04:37:23;;;;;;;16.65;7.68;;;;;;;-148.88;100.00;78520.31;5073971;28;20025;-82
2023/01/22 04:39:48;;;;;;;14.90;6.40;;;;;;;-148.88;100.00;78512.19;5077778;28;20024;-81
2023/01/22 04:42:14;;;;;;;16.40;8.18;;;;;;;-148.88;100.00;78514.22;5058027;28;20028;-82
2023/01/22 04:44:39;;;;;;;16.58;7.32;;;;;;;-148.88;100.00;78512.19;5075664;28;20032;-82
2023/01/22 04:47:04;;;;;;;16.00;6.70;;;;;;;-148.88;100.00;78514.22;5075670;28;20074;-82
2023/01/22 04:49:30;;;;;;;14.35;7.18;;;;;;;-148.88;100.00;78518.28;5057687;28;20379;-82
2023/01/22 04:51:55;;;;;;;13.27;6.30;;;;;;;-148.88;100.00;78510.13;5057601;28;20021;-82
2023/01/22 04:54:20;;;;;;;20.27;7.35;;;;;;;-148.88;100.00;78520.31;5057447;28;20483;-82
2023/01/22 04:56:46;;;;;;;14.55;6.88;;;;;;;-148.88;100.00;78520.31;5075585;28;20024;-82
2023/01/22 04:59:11;;;;;;;15.95;7.43;;;;;;;-148.88;100.00;78520.31;5057724;28;20107;-82
2023/01/22 05:01:36;;;;;;;23.05;8.10;;;;;;;-148.88;100.00;78524.38;5079110;28;20024;-83
2023/01/22 05:04:02;;;;;;;17.83;7.10;;;;;;;-148.88;100.00;78520.31;5079901;28;20028;-83
2023/01/22 05:06:28;;;;;;;15.02;6.03;;;;;;;-148.88;100.00;78524.38;5061071;28;20459;-83
2023/01/22 05:08:56;;;;;;;12.32;5.60;;;;;;;-148.88;100.00;78532.50;5060754;28;20024;-83
2023/01/22 05:11:21;;;;;;;13.93;6.32;;;;;;;-148.88;100.00;78536.56;5060493;28;20116;-82
2023/01/22 05:13:47;;;;;;;12.45;5.88;;;;;;;-148.88;100.00;78532.50;5061334;28;20055;-83
2023/01/22 05:16:12;;;;;;;13.32;6.03;;;;;;;-148.88;100.00;78536.56;5061113;28;20017;-83
2023/01/22 05:18:37;;;;;;;12.10;5.80;;;;;;;-148.88;100.00;78532.50;5077878;28;20017;-82
2023/01/22 05:21:03;;;;;;;12.40;5.65;;;;;;;-148.88;100.00;78532.50;5075183;28;20131;-82
2023/01/22 05:23:28;;;;;;;11.20;5.10;;;;;;;-148.88;100.00;78538.59;5057803;28;20028;-81
2023/01/22 05:25:53;;;;;;;16.85;6.28;;;;;;;-148.88;100.00;78536.56;5058623;28;20483;-82
2023/01/22 05:28:19;;;;;;;10.93;6.10;;;;;;;-148.88;100.00;78536.56;5078655;28;20020;-82
2023/01/22 05:30:47;;;;;;;9.82;4.88;;;;;;;-148.88;100.00;78532.50;5059901;28;20030;-82
2023/01/22 05:33:12;;;;;;;12.52;5.13;;;;;;;-148.88;100.00;78544.69;5059633;28;20463;-82
2023/01/22 05:35:37;;;;;;;10.00;5.13;;;;;;;-148.88;100.00;78540.63;5059883;28;20052;-82
2023/01/22 05:38:02;;;;;;;10.88;5.13;;;;;;;-148.88;100.00;78536.56;5060791;28;20021;-82
2023/01/22 05:40:28;;;;;;;8.93;4.10;;;;;;;-148.88;100.00;78532.50;5077110;28;20028;-82
2023/01/22 05:42:53;;;;;;;9.68;4.88;;;;;;;-148.88;100.00;78538.59;5076568;28;20039;-82
2023/01/22 05:45:19;;;;;;;11.70;5.32;;;;;;;-148.88;100.00;78528.44;5076566;28;20020;-82
2023/01/22 05:47:52;;;;;;;12.30;6.10;;;;;;;-148.88;100.00;78532.50;5058292;28;20056;-82
2023/01/22 05:50:17;;;;;;;12.05;5.85;;;;;;;-148.88;100.00;78536.56;5057838;28;20036;-82
2023/01/22 05:52:43;;;;;;;12.55;5.63;;;;;;;-148.88;100.00;78536.56;5076461;28;20025;-82
2023/01/22 05:55:08;;;;;;;11.25;5.25;;;;;;;-148.88;100.00;78538.59;5057558;28;20025;-82
2023/01/22 05:57:34;;;;;;;12.45;5.70;;;;;;;-148.88;100.00;78534.53;5074805;28;20436;-82
2023/01/22 05:59:59;;;;;;;14.80;5.55;;;;;;;-148.88;100.00;78536.56;5075212;28;20024;-82
2023/01/22 06:02:25;;;;;;;11.70;6.13;;;;;;;-148.88;100.00;78540.63;5075155;28;20042;-82
2023/01/22 06:04:50;;;;;;;10.90;4.82;;;;;;;-148.88;100.00;78530.47;5074667;28;20029;-82
2023/01/22 06:07:15;;;;;;;11.10;4.88;;;;;;;-148.88;100.00;78530.47;5075519;28;20036;-82
2023/01/22 06:09:41;;;;;;;11.75;5.88;;;;;;;-148.88;100.00;78528.44;5074696;28;20414;-82
2023/01/22 06:12:06;;;;;;;12.50;5.93;;;;;;;-148.88;100.00;78522.34;5075082;28;20060;-81
2023/01/22 06:14:31;;;;;;;13.43;5.80;;;;;;;-148.88;100.00;78518.28;5056551;28;20073;-82
2023/01/22 06:16:57;;;;;;;13.85;5.90;;;;;;;-148.88;100.00;78524.38;5056494;28;20135;-83
2023/01/22 06:19:22;;;;;;;15.18;6.03;;;;;;;-148.88;100.00;78520.31;5075120;28;20111;-82
2023/01/22 06:21:47;;;;;;;13.38;5.97;;;;;;;-148.88;100.00;78518.28;5059624;28;20047;-82
2023/01/22 06:24:13;;;;;;;14.02;6.25;;;;;;;-148.88;100.00;78516.25;5059524;28;20447;-82
2023/01/22 06:26:38;;;;;;;15.52;7.03;;;;;;;-148.88;100.00;78514.22;5076988;28;20016;-83
2023/01/22 06:29:03;;;;;;;12.73;6.00;;;;;;;-148.88;100.00;78508.09;5058549;28;20116;-83
2023/01/22 06:31:30;;;;;;;16.88;7.43;;;;;;;-148.88;100.00;78506.06;5059105;28;20024;-83
2023/01/22 06:33:55;;;;;;;17.73;7.88;;;;;;;-148.88;100.00;78512.19;5056120;28;20074;-82
2023/01/22 06:36:21;;;;;;;14.70;6.97;;;;;;;-148.88;100.00;78510.13;5056178;28;20032;-82
2023/01/22 06:38:46;;;;;;;17.95;8.38;;;;;;;-148.88;100.00;78508.09;5074281;28;20099;-82
2023/01/22 06:41:11;;;;;;;14.23;6.85;;;;;;;-148.88;100.00;78512.19;5074316;28;20024;-82
2023/01/22 06:43:36;;;;;;;18.13;7.22;;;;;;;-148.88;100.00;78516.25;5074214;28;20115;-82
2023/01/22 06:46:03;;;;;;;16.70;7.38;;;;;;;-148.88;100.00;78518.28;5056826;28;20464;-82
2023/01/22 06:48:28;;;;;;;17.55;8.02;;;;;;;-148.88;100.00;78516.25;5074197;28;20043;-83
2023/01/22 06:50:57;;;;;;;20.60;8.07;;;;;;;-148.88;100.00;78516.25;5074964;28;20028;-82
2023/01/22 06:53:23;;;;;;;16.60;7.65;;;;;;;-148.88;100.00;78520.31;5074225;28;20067;-82
2023/01/22 06:55:48;;;;;;;17.77;7.35;;;;;;;-148.88;100.00;78518.28;5081376;28;20021;-83
2023/01/22 06:58:13;;;;;;;17.20;7.07;;;;;;;-148.88;100.00;78520.31;5065603;28;20059;-83
2023/01/22 07:00:39;;;;;;;16.45;7.32;;;;;;;-148.88;100.00;78524.38;5080867;28;20059;-83
2023/01/22 07:03:06;;;;;;;15.70;7.25;;;;;;;-148.88;100.00;78526.41;5082761;28;20028;-83
2023/01/22 07:05:31;;;;;;;17.50;7.38;;;;;;;-148.88;100.00;78528.44;5084824;28;20073;-84
2023/01/22 07:07:56;;;;;;;16.63;7.22;;;;;;;-148.88;100.00;78528.44;5062823;28;20074;-83
2023/01/22 07:10:21;;;;;;;16.35;6.53;;;;;;;-148.88;100.00;78532.50;5073481;28;20021;-81
2023/01/22 07:12:48;;;;;;;15.00;7.05;;;;;;;-148.88;100.00;78534.53;5073899;28;20103;-81
2023/01/22 07:15:13;;;;;;;16.90;7.20;;;;;;;-148.88;100.00;78528.44;5073550;28;20059;-80
2023/01/22 07:17:38;;;;;;;13.52;7.22;;;;;;;-148.88;100.00;78532.50;5079430;28;20133;-82
2023/01/22 07:20:04;;;;;;;17.25;8.00;;;;;;;-148.88;100.00;78534.53;5081115;28;20016;-82
2023/01/22 07:22:31;;;;;;;18.20;7.40;;;;;;;-148.88;100.00;78536.56;5062233;28;20116;-81
2023/01/22 07:24:56;;;;;;;16.75;7.47;;;;;;;-148.88;100.00;78528.44;5080336;28;20070;-81
2023/01/22 07:27:21;;;;;;;15.18;7.25;;;;;;;-148.88;100.00;78532.50;5081384;28;20028;-81
2023/01/22 07:29:48;;;;;;;16.70;8.20;;;;;;;-148.88;100.00;78534.53;5083058;28;20036;-81
2023/01/22 07:32:14;;;;;;;18.38;8.50;;;;;;;-148.88;100.00;78530.47;5082258;28;20029;-81
2023/01/22 07:34:39;;;;;;;18.17;7.85;;;;;;;-148.88;100.00;78536.56;5081106;28;20028;-80
2023/01/22 07:37:04;;;;;;;18.85;8.25;;;;;;;-148.88;100.00;78540.63;5063949;28;20031;-79
2023/01/22 07:39:30;;;;;;;18.77;8.07;;;;;;;-148.88;100.00;78538.59;5083492;28;20106;-79
2023/01/22 07:41:59;;;;;;;17.55;8.20;;;;;;;-148.88;100.00;78552.81;5083424;28;20025;-80
2023/01/22 07:44:25;;;;;;;19.42;7.22;;;;;;;-148.88;100.00;78550.78;5081247;28;20024;-81
2023/01/22 07:46:50;;;;;;;16.02;7.93;;;;;;;-148.88;100.00;78556.88;5073659;28;20028;-81
2023/01/22 07:49:16;;;;;;;18.27;7.65;;;;;;;-148.88;100.00;78552.81;5072921;28;20035;-81
2023/01/22 07:51:41;;;;;;;21.17;7.85;;;;;;;-148.88;100.00;78556.88;5055315;28;20035;-81
2023/01/22 07:54:06;;;;;;;16.17;7.28;;;;;;;-148.88;100.00;78556.88;5073289;28;20028;-81
2023/01/22 07:56:31;;;;;;;16.63;7.03;;;;;;;-148.88;100.00;78567.06;5055492;28;20024;-81
2023/01/22 07:58:57;;;;;;;15.68;7.05;;;;;;;-148.88;100.00;78569.09;5053076;28;20023;-79
2023/01/22 08:01:22;;;;;;;15.13;7.35;;;;;;;-148.88;100.00;78560.97;5053361;28;20104;-82
2023/01/22 08:03:47;;;;;;;15.90;6.80;;;;;;;-148.88;100.00;78556.88;5052901;28;20023;-82
2023/01/22 08:06:19;;;;;;;17.10;7.72;;;;;;;-148.88;100.00;78556.88;5054258;28;20025;-82
2023/01/22 08:08:44;;;;;;;17.67;7.60;;;;;;;-148.88;100.00;78567.06;5035811;28;20048;-82
2023/01/22 08:11:10;;;;;;;21.10;7.82;;;;;;;-148.88;100.00;78556.88;5054073;28;20480;-82
2023/01/22 08:13:35;;;;;;;16.70;7.28;;;;;;;-148.88;100.00;78556.88;5056518;28;20579;-82
2023/01/22 08:16:00;;;;;;;18.38;8.15;;;;;;;-148.88;100.00;78554.84;5057687;28;20025;-82
2023/01/22 08:18:25;;;;;;;17.35;7.30;;;;;;;-148.88;100.00;78560.97;5058090;28;20104;-82
2023/01/22 08:20:51;;;;;;;17.88;7.75;;;;;;;-148.88;100.00;78556.88;5040292;28;20044;-82
2023/01/22 08:23:17;;;;;;;16.15;6.53;;;;;;;-148.88;100.00;78560.97;5038510;28;20108;-82
2023/01/22 08:25:42;;;;;;;18.20;7.25;;;;;;;-148.88;100.00;78558.94;5038460;28;20021;-82
2023/01/22 08:28:07;;;;;;;18.25;8.07;;;;;;;-148.88;100.00;78565.03;5038720;28;20029;-82
2023/01/22 08:30:34;;;;;;;16.08;7.07;;;;;;;-148.88;100.00;78565.03;5056303;28;20399;-82
2023/01/22 08:33:01;;;;;;;20.80;8.35;;;;;;;-148.88;100.00;78569.09;5042307;28;20029;-83
2023/01/22 08:35:27;;;;;;;16.42;7.40;;;;;;;-148.88;100.00;78567.06;5050590;28;20451;-83
2023/01/22 08:37:52;;;;;;;13.93;6.40;;;;;;;-148.88;100.00;78567.06;5068933;28;20074;-83
2023/01/22 08:40:18;;;;;;;15.35;7.00;;;;;;;-148.88;100.00;78573.16;5064537;28;20053;-83
2023/01/22 08:42:49;;;;;;;16.80;7.40;;;;;;;-148.88;100.00;78565.03;5045864;28;20111;-83
2023/01/22 08:45:15;;;;;;;17.08;7.45;;;;;;;-148.88;100.00;78565.03;5062487;28;20480;-83
2023/01/22 08:47:40;;;;;;;13.77;7.15;;;;;;;-148.88;100.00;78567.06;5063091;28;20097;-83
2023/01/22 08:50:06;;;;;;;22.90;7.10;;;;;;;-148.88;100.00;78571.13;5063076;28;20028;-83
2023/01/22 08:52:31;;;;;;;17.98;6.88;;;;;;;-148.88;100.00;78573.16;5044767;28;20116;-83
2023/01/22 08:54:56;;;;;;;17.42;6.95;;;;;;;-148.88;100.00;78569.09;5046820;28;20056;-83
2023/01/22 08:57:21;;;;;;;19.38;7.43;;;;;;;-148.88;100.00;78577.22;5044633;28;20063;-83
2023/01/22 08:59:47;;;;;;;15.10;6.57;;;;;;;-148.88;100.00;78575.19;5056597;28;20547;-82
2023/01/22 09:02:13;;;;;;;12.88;6.40;;;;;;;-148.88;100.00;78560.97;5052445;28;20107;-82
2023/01/22 09:04:39;;;;;;;15.35;7.47;;;;;;;-148.88;100.00;78567.06;5074208;28;20032;-82
2023/01/22 09:07:04;;;;;;;16.77;8.00;;;;;;;-148.88;100.00;78556.88;5080398;28;20056;-83
2023/01/22 09:09:29;;;;;;;18.25;6.60;;;;;;;-148.88;100.00;78556.88;5081121;28;20427;-82
2023/01/22 09:11:54;;;;;;;14.90;6.30;;;;;;;-148.88;100.00;78556.88;5062707;28;20398;-83
2023/01/22 09:14:20;;;;;;;15.80;7.55;;;;;;;-148.88;100.00;78554.84;5062073;28;20027;-83
2023/01/22 09:16:45;;;;;;;15.77;6.75;;;;;;;-148.88;100.00;78556.88;5079815;28;20020;-83
2023/01/22 09:19:11;;;;;;;14.50;6.03;;;;;;;-148.88;100.00;78554.84;5061811;28;20024;-82
2023/01/22 09:21:36;;;;;;;15.68;6.82;;;;;;;-148.88;100.00;78556.88;5080099;28;20447;-82
2023/01/22 09:24:03;;;;;;;18.98;6.57;;;;;;;-148.88;100.00;78558.94;5076309;28;20478;-82
2023/01/22 09:26:28;;;;;;;16.00;7.47;;;;;;;-148.88;100.00;78552.81;5058648;28;20043;-82
2023/01/22 09:28:53;;;;;;;14.98;6.93;;;;;;;-148.88;100.00;78552.81;5076685;28;20025;-81
2023/01/22 09:31:19;;;;;;;14.93;7.07;;;;;;;-148.88;100.00;78548.75;5059277;28;20037;-82
2023/01/22 09:33:44;;;;;;;16.90;7.00;;;;;;;-148.88;100.00;78538.59;5058370;28;20509;-82
2023/01/22 09:36:12;;;;;;;16.65;6.97;;;;;;;-148.88;100.00;78548.75;5075357;28;20609;-82
2023/01/22 09:38:38;;;;;;;16.55;6.85;;;;;;;-148.88;100.00;78540.63;5076755;28;20048;-83
2023/01/22 09:41:18;;;;;;;18.10;7.65;;;;;;;-148.88;100.00;78540.63;5084819;28;20318;-83
2023/01/22 09:43:53;;;;;;;16.38;6.13;;;;;;;-148.88;100.00;78540.63;5067346;28;20024;-82
2023/01/22 09:46:27;;;;;;;20.52;7.43;;;;;;;-148.88;100.00;78540.63;5084370;28;20040;-82
2023/01/22 09:48:59;;;;;;;17.35;7.85;;;;;;;-148.88;100.00;78544.69;5089402;28;20037;-82
2023/01/22 09:51:24;;;;;;;19.67;7.38;;;;;;;-148.88;100.00;78540.63;5070982;28;20025;-82
2023/01/22 09:53:55;;;;;;;16.73;7.53;;;;;;;-148.88;100.00;78548.75;5085520;28;20028;-82
2023/01/22 09:56:43;;;;;;;15.25;6.95;;;;;;;-148.88;100.00;78540.63;5066654;28;20020;-82
2023/01/22 09:59:15;;;;;;;16.20;7.38;;;;;;;-148.88;100.00;78542.66;5082515;28;20032;-82
2023/01/22 10:01:44;;;;;;;19.63;7.72;;;;;;;-148.88;100.00;78540.63;5063823;28;20017;-82
2023/01/22 10:04:23;;;;;;;17.75;7.82;;;;;;;-148.88;100.00;78540.63;5064466;28;20021;-83
2023/01/22 10:06:51;;;;;;;14.95;7.40;;;;;;;-148.88;100.00;78532.50;5075383;28;20021;-82
2023/01/22 10:09:19;;;;;;;18.85;8.77;;;;;;;-148.88;100.00;78538.59;5050532;28;20017;-82
2023/01/22 10:11:52;;;;;;;21.77;8.45;;;;;;;-148.88;100.00;78528.44;5040595;28;20219;-82
2023/01/22 10:14:20;;;;;;;19.02;7.88;;;;;;;-148.88;100.00;78536.56;5054129;28;20035;-82
2023/01/22 10:16:46;;;;;;;17.85;8.02;;;;;;;-148.88;100.00;78532.50;5036611;28;20025;-82
2023/01/22 10:19:27;;;;;;;17.50;8.02;;;;;;;-148.88;100.00;78536.56;5055521;28;20059;-83
2023/01/22 10:22:10;;;;;;;17.88;8.48;;;;;;;-148.88;100.00;78532.50;5055762;28;20025;-83
2023/01/22 10:24:35;;;;;;;16.58;7.88;;;;;;;-148.88;100.00;78534.53;5055336;28;20625;-83
2023/01/22 10:27:10;;;;;;;23.02;7.43;;;;;;;-148.88;100.00;78538.59;5055661;28;20053;-83
2023/01/22 10:29:37;;;;;;;17.73;7.93;;;;;;;-148.88;100.00;78530.47;5055291;28;20369;-83
2023/01/22 10:32:24;;;;;;;18.58;7.63;;;;;;;-148.88;100.00;78530.47;5055122;28;20104;-83
2023/01/22 10:35:04;;;;;;;25.17;7.40;;;;;;;-148.88;100.00;78526.41;5056447;28;20024;-83
2023/01/22 10:37:29;;;;;;;21.42;8.43;;;;;;;-148.88;100.00;78528.44;5038543;28;20020;-82
2023/01/22 10:39:57;;;;;;;16.30;7.43;;;;;;;-148.88;100.00;78526.41;5057118;28;20395;-83
2023/01/22 10:42:27;;;;;;;18.52;7.65;;;;;;;-148.88;100.00;78522.34;5039607;28;20063;-82
2023/01/22 10:45:08;;;;;;;20.08;8.15;;;;;;;-148.88;100.00;78526.41;5038255;28;20025;-82
2023/01/22 10:47:33;;;;;;;16.35;7.47;;;;;;;-148.88;100.00;78524.38;5038202;28;20411;-83
2023/01/22 10:50:12;;;;;;;18.13;7.40;;;;;;;-148.88;100.00;78520.31;5062509;28;20029;-83
2023/01/22 10:52:50;;;;;;;17.58;7.80;;;;;;;-148.88;100.00;78524.38;5047957;28;20056;-83
2023/01/22 10:55:29;;;;;;;19.65;8.18;;;;;;;-148.88;100.00;78520.31;5046287;28;20041;-82
2023/01/22 10:58:01;;;;;;;18.85;8.23;;;;;;;-148.88;100.00;78534.53;5045090;28;20086;-82
2023/01/22 11:00:32;;;;;;;17.80;8.43;;;;;;;-148.88;100.00;78528.44;5044566;28;20390;-82
2023/01/22 11:02:58;;;;;;;20.33;7.90;;;;;;;-148.88;100.00;78528.44;5043631;28;20115;-83
2023/01/22 11:05:29;;;;;;;16.70;7.35;;;;;;;-148.88;100.00;78526.41;5061966;28;20056;-83
2023/01/22 11:08:06;;;;;;;19.40;8.57;;;;;;;-148.88;100.00;78526.41;5045796;28;20013;-83
2023/01/22 11:10:44;;;;;;;20.10;8.52;;;;;;;-148.88;100.00;78522.34;5047671;28;20078;-83
2023/01/22 11:13:35;;;;;;;17.45;7.88;;;;;;;-148.88;100.00;78520.31;5047790;28;20025;-83
2023/01/22 11:16:05;;;;;;;19.98;8.80;;;;;;;-148.88;100.00;78516.25;5045567;28;20029;-83
2023/01/22 11:18:30;;;;;;;24.52;8.55;;;;;;;-148.88;100.00;78512.19;5065963;28;20530;-82